Time;durP1;ratioP1;P1;durP2;ratioP2;P2;SDS_P1;SDS_P2;PMS_P1;PMS_P2;Temp;Humidity;BMP_temperature;BMP_pressure;BME280_temperature;BME280_humidity;BME280_pressure;Samples;Min_cycle;Max_cycle;Signal;HPM_P1;HPM_P2
2022/03/13 00:02:09;;;;;;;0.00;0.00;;;8.90;50.10;;;;;;4102762;28;20382;-73
2022/03/13 00:04:36;;;;;;;0.00;0.00;;;8.90;49.40;;;;;;4106170;28;20464;-74
2022/03/13 00:06:59;;;;;;;0.00;0.00;;;9.00;48.90;;;;;;4132439;28;20050;-73
2022/03/13 00:09:25;;;;;;;0.00;0.00;;;9.10;48.60;;;;;;4119147;28;20462;-74
2022/03/13 00:11:52;;;;;;;0.00;0.00;;;9.20;48.50;;;;;;4118849;28;20109;-74
2022/03/13 00:14:20;;;;;;;0.00;0.00;;;9.30;47.50;;;;;;4118468;28;20090;-73
2022/03/13 00:16:44;;;;;;;0.00;0.00;;;9.50;47.50;;;;;;4119024;28;20050;-74
2022/03/13 00:19:07;;;;;;;0.00;0.00;;;9.40;48.00;;;;;;4102881;28;20047;-75
2022/03/13 00:21:35;;;;;;;0.00;0.00;;;9.40;48.20;;;;;;4116357;28;20047;-73
2022/03/13 00:24:01;;;;;;;0.00;0.00;;;9.40;48.20;;;;;;4088854;28;20051;-74
2022/03/13 00:26:25;;;;;;;0.00;0.00;;;9.40;48.00;;;;;;4115890;28;20066;-74
2022/03/13 00:28:47;;;;;;;0.00;0.00;;;9.50;47.80;;;;;;4102890;28;20113;-74
2022/03/13 00:31:12;;;;;;;0.00;0.00;;;9.40;47.50;;;;;;4129519;28;20058;-77
2022/03/13 00:33:36;;;;;;;0.00;0.00;;;9.40;47.40;;;;;;4129464;28;20042;-73
2022/03/13 00:35:58;;;;;;;0.00;0.00;;;9.60;47.50;;;;;;4129683;28;20532;-72
2022/03/13 00:38:25;;;;;;;0.00;0.00;;;9.60;47.40;;;;;;4128735;28;20092;-75
2022/03/13 00:40:51;;;;;;;0.00;0.00;;;9.50;47.40;;;;;;4102657;28;20050;-74
2022/03/13 00:43:16;;;;;;;0.00;0.00;;;9.50;47.20;;;;;;4089190;28;20076;-73
2022/03/13 00:45:38;;;;;;;0.00;0.00;;;9.30;47.30;;;;;;4115695;28;20058;-76
2022/03/13 00:48:02;;;;;;;0.00;0.00;;;9.50;47.10;;;;;;4129923;28;20112;-76
2022/03/13 00:50:30;;;;;;;0.00;0.00;;;9.60;46.80;;;;;;4118009;28;20070;-78
2022/03/13 00:52:53;;;;;;;0.00;0.00;;;9.70;46.70;;;;;;4118419;28;20046;-73
2022/03/13 00:55:19;;;;;;;0.00;0.00;;;9.70;46.50;;;;;;4104965;28;20051;-71
2022/03/13 00:57:44;;;;;;;0.00;0.00;;;9.70;46.90;;;;;;4118338;28;20050;-74
2022/03/13 01:00:10;;;;;;;0.00;0.00;;;9.70;47.10;;;;;;4117948;28;20489;-76
2022/03/13 01:02:35;;;;;;;0.00;0.00;;;9.80;47.20;;;;;;4118609;28;20053;-77
2022/03/13 01:04:57;;;;;;;0.00;0.00;;;9.80;47.50;;;;;;4118117;28;20045;-74
2022/03/13 01:07:19;;;;;;;0.00;0.00;;;9.70;48.70;;;;;;4118188;28;20121;-74
2022/03/13 01:09:42;;;;;;;0.00;0.00;;;9.50;49.40;;;;;;4104364;28;20061;-74
2022/03/13 01:12:05;;;;;;;0.00;0.00;;;9.50;50.70;;;;;;4104912;28;20051;-74
2022/03/13 01:14:28;;;;;;;0.00;0.00;;;9.30;51.50;;;;;;4117650;28;20051;-73
2022/03/13 01:17:04;;;;;;;0.00;0.00;;;9.20;51.50;;;;;;4118171;28;20405;-77
2022/03/13 01:19:31;;;;;;;0.00;0.00;;;9.30;51.60;;;;;;4118010;28;20064;-80
2022/03/13 01:21:54;;;;;;;0.00;0.00;;;9.10;51.80;;;;;;4118417;28;20109;-72
2022/03/13 01:24:15;;;;;;;0.00;0.00;;;9.20;51.80;;;;;;4090160;28;20067;-74
2022/03/13 01:26:41;;;;;;;0.00;0.00;;;9.10;51.70;;;;;;4118078;28;20039;-72
2022/03/13 01:29:17;;;;;;;0.00;0.00;;;9.10;51.50;;;;;;4104767;28;20102;-75
2022/03/13 01:31:48;;;;;;;0.00;0.00;;;9.20;51.30;;;;;;4118133;28;20062;-76
2022/03/13 01:34:16;;;;;;;0.00;0.00;;;9.10;51.20;;;;;;4103955;28;20080;-73
2022/03/13 01:36:41;;;;;;;0.00;0.00;;;9.10;51.10;;;;;;4104461;28;20113;-73
2022/03/13 01:39:09;;;;;;;0.00;0.00;;;9.10;51.10;;;;;;4104866;28;20101;-74
2022/03/13 01:41:34;;;;;;;0.00;0.00;;;9.00;51.30;;;;;;4118057;28;20042;-74
2022/03/13 01:44:00;;;;;;;0.00;0.00;;;8.90;51.50;;;;;;4105462;28;20051;-75
2022/03/13 01:46:22;;;;;;;0.00;0.00;;;8.80;51.60;;;;;;4101950;28;20050;-75
2022/03/13 01:49:03;;;;;;;0.00;0.00;;;8.80;51.70;;;;;;4089516;29;20075;-74
2022/03/13 01:51:29;;;;;;;0.00;0.00;;;8.60;52.10;;;;;;4089124;29;20048;-76
2022/03/13 01:53:58;;;;;;;0.00;0.00;;;8.50;52.10;;;;;;4102654;28;20039;-75
2022/03/13 01:56:21;;;;;;;0.00;0.00;;;8.50;52.10;;;;;;4089134;28;20072;-74
2022/03/13 01:58:43;;;;;;;0.00;0.00;;;8.50;52.30;;;;;;4102615;28;20050;-76
2022/03/13 02:01:06;;;;;;;0.00;0.00;;;8.40;52.50;;;;;;4089304;29;20119;-75
2022/03/13 02:03:28;;;;;;;0.00;0.00;;;8.30;52.60;;;;;;4089409;29;20047;-72
2022/03/13 02:05:50;;;;;;;0.00;0.00;;;8.30;53.10;;;;;;4102291;28;20039;-75
2022/03/13 02:08:20;;;;;;;0.00;0.00;;;8.20;53.70;;;;;;4088709;28;20426;-74
2022/03/13 02:10:44;;;;;;;0.00;0.00;;;8.10;54.10;;;;;;4088850;29;20094;-76
2022/03/13 02:13:10;;;;;;;0.00;0.00;;;8.10;54.30;;;;;;4102322;28;20052;-73
2022/03/13 02:15:32;;;;;;;0.00;0.00;;;8.10;55.20;;;;;;4102161;28;20135;-76
2022/03/13 02:18:02;;;;;;;0.00;0.00;;;8.20;55.90;;;;;;4102113;28;20153;-72
2022/03/13 02:20:35;;;;;;;0.00;0.00;;;8.20;56.30;;;;;;4088400;29;20047;-73
2022/03/13 02:23:02;;;;;;;0.00;0.00;;;8.20;56.70;;;;;;4088827;29;20057;-75
2022/03/13 02:25:31;;;;;;;0.00;0.00;;;8.10;56.60;;;;;;4088733;29;20069;-73
2022/03/13 02:27:55;;;;;;;0.00;0.00;;;8.10;57.10;;;;;;4101911;28;20074;-73
2022/03/13 02:30:24;;;;;;;0.00;0.00;;;8.00;56.90;;;;;;4075746;28;20075;-73
2022/03/13 02:32:50;;;;;;;0.00;0.00;;;8.10;56.50;;;;;;4089490;29;20055;-73
2022/03/13 02:35:17;;;;;;;0.00;0.00;;;8.20;55.90;;;;;;4102726;28;20614;-75
2022/03/13 02:37:42;;;;;;;0.00;0.00;;;8.20;55.30;;;;;;4091213;29;20355;-74
2022/03/13 02:40:23;;;;;;;0.00;0.00;;;8.20;54.90;;;;;;4091662;28;20047;-74
2022/03/13 02:42:51;;;;;;;0.00;0.00;;;8.30;54.70;;;;;;4091148;29;20083;-72
2022/03/13 02:45:36;;;;;;;0.00;0.00;;;8.20;54.70;;;;;;4105022;28;20058;-72
2022/03/13 02:48:00;;;;;;;0.00;0.00;;;8.20;54.50;;;;;;4090293;29;20064;-73
2022/03/13 02:50:22;;;;;;;0.00;0.00;;;8.20;54.40;;;;;;4118041;28;20047;-75
2022/03/13 02:52:44;;;;;;;0.00;0.00;;;8.10;54.30;;;;;;4105519;28;20425;-72
2022/03/13 02:55:09;;;;;;;0.00;0.00;;;8.10;54.00;;;;;;4118202;28;20465;-73
2022/03/13 02:57:31;;;;;;;0.00;0.00;;;8.00;53.90;;;;;;4093450;28;20055;-73
2022/03/13 02:59:55;;;;;;;0.00;0.00;;;8.00;53.50;;;;;;4120334;28;20453;-72
2022/03/13 03:02:17;;;;;;;0.00;0.00;;;7.90;53.60;;;;;;4106896;28;20086;-75
2022/03/13 03:04:43;;;;;;;0.00;0.00;;;7.90;53.80;;;;;;4093543;28;20044;-73
2022/03/13 03:07:05;;;;;;;0.00;0.00;;;7.80;53.80;;;;;;4133892;28;20042;-74
2022/03/13 03:09:34;;;;;;;0.00;0.00;;;7.80;54.20;;;;;;4104968;28;20071;-74
2022/03/13 03:12:00;;;;;;;0.00;0.00;;;7.80;54.60;;;;;;4103879;28;20047;-77
2022/03/13 03:14:22;;;;;;;0.00;0.00;;;7.80;54.80;;;;;;4116944;28;20458;-71
2022/03/13 03:16:44;;;;;;;0.00;0.00;;;7.70;55.00;;;;;;4130952;28;20054;-73
2022/03/13 03:19:06;;;;;;;0.00;0.00;;;7.70;55.30;;;;;;4130796;28;20300;-75
2022/03/13 03:21:31;;;;;;;0.00;0.00;;;7.70;55.70;;;;;;4130994;28;20043;-73
2022/03/13 03:23:56;;;;;;;0.00;0.00;;;7.70;55.80;;;;;;4103757;28;20672;-73
2022/03/13 03:26:20;;;;;;;0.00;0.00;;;7.60;55.90;;;;;;4117031;28;20126;-77
2022/03/13 03:28:43;;;;;;;0.00;0.00;;;7.60;56.30;;;;;;4090697;28;20066;-72
2022/03/13 03:31:05;;;;;;;0.00;0.00;;;7.60;56.40;;;;;;4116984;28;20047;-75
2022/03/13 03:33:32;;;;;;;0.00;0.00;;;7.60;56.50;;;;;;4103708;28;20130;-75
2022/03/13 03:36:01;;;;;;;0.00;0.00;;;7.70;56.60;;;;;;4117361;28;20158;-73
2022/03/13 03:38:28;;;;;;;0.00;0.00;;;7.60;56.60;;;;;;4116571;28;20351;-71
2022/03/13 03:40:52;;;;;;;0.00;0.00;;;7.60;56.50;;;;;;4103980;28;20118;-74
2022/03/13 03:43:14;;;;;;;0.00;0.00;;;7.30;56.20;;;;;;4116906;28;20051;-77
2022/03/13 03:45:40;;;;;;;0.00;0.00;;;7.20;56.50;;;;;;4117092;28;20046;-77
2022/03/13 03:48:02;;;;;;;0.00;0.00;;;7.40;56.10;;;;;;4117707;28;20081;-76
2022/03/13 03:50:27;;;;;;;0.00;0.00;;;7.50;55.60;;;;;;4103328;28;20047;-72
2022/03/13 03:52:55;;;;;;;0.00;0.00;;;7.50;55.40;;;;;;4090764;28;20131;-74
2022/03/13 03:55:19;;;;;;;0.00;0.00;;;7.50;55.20;;;;;;4103536;28;20051;-73
2022/03/13 03:57:44;;;;;;;0.00;0.00;;;7.50;55.00;;;;;;4116840;28;20047;-75
2022/03/13 04:00:09;;;;;;;0.00;0.00;;;7.40;55.10;;;;;;4129934;28;20097;-74
2022/03/13 04:02:37;;;;;;;0.00;0.00;;;7.40;55.30;;;;;;4116502;28;20050;-74
2022/03/13 04:05:04;;;;;;;0.00;0.00;;;7.30;55.30;;;;;;4103199;28;20073;-77
2022/03/13 04:07:28;;;;;;;0.00;0.00;;;7.20;57.30;;;;;;4116150;28;20058;-72
2022/03/13 04:09:52;;;;;;;0.00;0.00;;;7.20;57.80;;;;;;4102745;28;20446;-74
2022/03/13 04:12:17;;;;;;;0.00;0.00;;;7.00;60.20;;;;;;4102516;28;20126;-75
2022/03/13 04:14:44;;;;;;;0.00;0.00;;;6.90;61.20;;;;;;4116361;28;20150;-75
2022/03/13 04:17:06;;;;;;;0.00;0.00;;;7.00;61.10;;;;;;4130126;28;20456;-76
2022/03/13 04:19:31;;;;;;;0.00;0.00;;;7.10;60.80;;;;;;4116758;28;20046;-74
2022/03/13 04:21:54;;;;;;;0.00;0.00;;;7.10;60.10;;;;;;4103333;28;20040;-75
2022/03/13 04:24:18;;;;;;;0.00;0.00;;;7.10;59.60;;;;;;4100159;28;20493;-72
2022/03/13 04:26:41;;;;;;;0.00;0.00;;;7.20;59.10;;;;;;4087171;29;20135;-75
2022/03/13 04:29:06;;;;;;;0.00;0.00;;;7.20;58.60;;;;;;4087581;29;20075;-72
2022/03/13 04:31:32;;;;;;;0.00;0.00;;;7.20;58.50;;;;;;4074486;29;20056;-74
2022/03/13 04:33:54;;;;;;;0.00;0.00;;;7.20;58.90;;;;;;4100437;28;20055;-73
2022/03/13 04:36:21;;;;;;;0.00;0.00;;;7.10;59.50;;;;;;4102804;28;20097;-72
2022/03/13 04:38:48;;;;;;;0.00;0.00;;;7.00;60.50;;;;;;4130079;28;20077;-73
2022/03/13 04:41:10;;;;;;;0.00;0.00;;;6.90;61.10;;;;;;4129874;28;20034;-73
2022/03/13 04:43:33;;;;;;;0.00;0.00;;;6.90;61.60;;;;;;4102849;28;20061;-75
2022/03/13 04:45:55;;;;;;;0.00;0.00;;;6.90;62.00;;;;;;4103365;28;20059;-75
2022/03/13 04:48:23;;;;;;;0.00;0.00;;;7.00;61.70;;;;;;4131369;28;20062;-75
2022/03/13 04:50:48;;;;;;;0.00;0.00;;;7.10;61.40;;;;;;4105171;28;20094;-75
2022/03/13 04:53:11;;;;;;;0.00;0.00;;;7.10;61.00;;;;;;4109512;28;20102;-73
2022/03/13 04:55:35;;;;;;;0.00;0.00;;;7.10;60.60;;;;;;4114310;28;20461;-75
2022/03/13 04:57:57;;;;;;;0.00;0.00;;;7.10;60.10;;;;;;4118920;28;20393;-73
2022/03/13 05:00:22;;;;;;;0.00;0.00;;;7.10;59.80;;;;;;4117943;28;20046;-75
2022/03/13 05:02:50;;;;;;;0.00;0.00;;;7.10;59.50;;;;;;4118340;28;20089;-74
2022/03/13 05:05:15;;;;;;;0.00;0.00;;;7.00;59.20;;;;;;4124862;28;20050;-74
2022/03/13 05:07:42;;;;;;;0.00;0.00;;;7.00;59.30;;;;;;4118650;28;20511;-77
2022/03/13 05:10:12;;;;;;;0.00;0.00;;;7.00;59.50;;;;;;4118027;28;20042;-73
2022/03/13 05:12:39;;;;;;;0.00;0.00;;;7.00;59.30;;;;;;4078414;28;20071;-75
2022/03/13 05:15:07;;;;;;;0.00;0.00;;;7.00;59.30;;;;;;4131771;28;20101;-74
2022/03/13 05:17:30;;;;;;;0.00;0.00;;;7.00;59.70;;;;;;4118164;28;20055;-73
2022/03/13 05:19:56;;;;;;;0.00;0.00;;;7.00;60.20;;;;;;4117963;28;20457;-75
2022/03/13 05:22:18;;;;;;;0.00;0.00;;;7.00;60.70;;;;;;4131454;28;20062;-74
2022/03/13 05:24:42;;;;;;;0.00;0.00;;;6.90;61.20;;;;;;4118203;28;20488;-76
2022/03/13 05:27:09;;;;;;;0.00;0.00;;;6.90;61.60;;;;;;4118044;28;20597;-71
2022/03/13 05:29:34;;;;;;;0.00;0.00;;;6.90;61.70;;;;;;4104923;28;20058;-74
2022/03/13 05:31:58;;;;;;;0.00;0.00;;;6.80;61.90;;;;;;4118049;28;20503;-73
2022/03/13 05:34:23;;;;;;;0.00;0.00;;;6.90;62.10;;;;;;4088530;28;20469;-72
2022/03/13 05:36:47;;;;;;;0.00;0.00;;;6.90;62.30;;;;;;4102381;28;20054;-74
2022/03/13 05:39:12;;;;;;;0.00;0.00;;;6.70;62.60;;;;;;4101948;28;20055;-74
2022/03/13 05:41:40;;;;;;;0.00;0.00;;;6.70;62.40;;;;;;4115251;28;20113;-76
2022/03/13 05:44:05;;;;;;;0.00;0.00;;;6.80;62.00;;;;;;4101883;28;20059;-73
2022/03/13 05:46:27;;;;;;;0.00;0.00;;;6.90;61.40;;;;;;4090642;28;20155;-74
2022/03/13 05:48:51;;;;;;;0.00;0.00;;;6.80;61.10;;;;;;4105385;28;20108;-72
2022/03/13 05:51:18;;;;;;;0.00;0.00;;;6.70;60.90;;;;;;4118917;28;20065;-74
2022/03/13 05:53:45;;;;;;;0.00;0.00;;;6.70;60.50;;;;;;4117810;28;20047;-73
2022/03/13 05:56:07;;;;;;;0.00;0.00;;;6.70;60.30;;;;;;4102189;28;20061;-74
2022/03/13 05:58:29;;;;;;;0.00;0.00;;;6.70;60.10;;;;;;4104618;28;20042;-73
2022/03/13 06:01:03;;;;;;;0.00;0.00;;;6.60;60.20;;;;;;4131484;28;20054;-74
2022/03/13 06:03:30;;;;;;;0.00;0.00;;;6.60;60.30;;;;;;4131382;28;20042;-75
2022/03/13 06:05:55;;;;;;;0.00;0.00;;;6.70;60.80;;;;;;4118259;28;20083;-73
2022/03/13 06:08:18;;;;;;;0.00;0.00;;;6.60;62.40;;;;;;4117099;28;20038;-77
2022/03/13 06:10:40;;;;;;;0.00;0.00;;;6.60;63.50;;;;;;4118073;28;20042;-75
2022/03/13 06:13:02;;;;;;;0.00;0.00;;;6.70;63.90;;;;;;4117888;28;20418;-74
2022/03/13 06:15:29;;;;;;;0.00;0.00;;;6.80;64.50;;;;;;4104227;28;20106;-75
2022/03/13 06:17:58;;;;;;;0.00;0.00;;;6.80;65.00;;;;;;4117496;28;20386;-74
2022/03/13 06:20:22;;;;;;;0.00;0.00;;;7.00;64.90;;;;;;4117306;28;20088;-73
2022/03/13 06:22:48;;;;;;;0.00;0.00;;;7.30;64.50;;;;;;4117663;28;20081;-74
2022/03/13 06:25:21;;;;;;;0.00;0.00;;;7.50;63.90;;;;;;4117598;28;20086;-75
2022/03/13 06:27:46;;;;;;;0.00;0.00;;;7.70;63.20;;;;;;4117333;28;20055;-75
2022/03/13 06:30:16;;;;;;;0.00;0.00;;;7.60;62.10;;;;;;4103245;28;20359;-74
2022/03/13 06:32:43;;;;;;;0.00;0.00;;;7.70;62.10;;;;;;4120897;28;20051;-74
2022/03/13 06:35:11;;;;;;;0.00;0.00;;;7.90;61.60;;;;;;4094989;28;20065;-73
2022/03/13 06:37:34;;;;;;;0.00;0.00;;;7.80;61.60;;;;;;4120433;28;20080;-69
2022/03/13 06:40:01;;;;;;;0.00;0.00;;;7.70;62.00;;;;;;4120555;28;20043;-72
2022/03/13 06:42:23;;;;;;;0.00;0.00;;;7.90;62.40;;;;;;4119784;28;20063;-73
2022/03/13 06:44:45;;;;;;;0.00;0.00;;;7.90;62.20;;;;;;4134136;28;20049;-71
2022/03/13 06:47:10;;;;;;;0.00;0.00;;;8.10;62.70;;;;;;4120469;28;20054;-72
2022/03/13 06:49:38;;;;;;;0.00;0.00;;;8.20;62.50;;;;;;4120668;28;20053;-75
2022/03/13 06:52:02;;;;;;;0.00;0.00;;;7.90;63.20;;;;;;4120791;28;20089;-74
2022/03/13 06:54:24;;;;;;;0.00;0.00;;;8.00;63.30;;;;;;4120058;28;20466;-74
2022/03/13 06:56:50;;;;;;;0.00;0.00;;;7.90;63.70;;;;;;4121143;28;20050;-73
2022/03/13 06:59:14;;;;;;;0.00;0.00;;;8.10;63.40;;;;;;4122396;28;20101;-73
2022/03/13 07:01:43;;;;;;;0.00;0.00;;;8.40;62.90;;;;;;4122284;28;20055;-74
2022/03/13 07:04:05;;;;;;;0.00;0.00;;;8.50;62.00;;;;;;4120534;28;20058;-73
2022/03/13 07:06:30;;;;;;;0.00;0.00;;;8.50;61.30;;;;;;4122389;28;20057;-71
2022/03/13 07:08:59;;;;;;;0.00;0.00;;;8.50;61.00;;;;;;4109038;28;20055;-73
2022/03/13 07:11:21;;;;;;;0.00;0.00;;;8.40;61.30;;;;;;4120229;28;20057;-72
2022/03/13 07:13:45;;;;;;;0.00;0.00;;;8.60;59.70;;;;;;4119828;28;20062;-74
2022/03/13 07:16:08;;;;;;;0.00;0.00;;;8.90;59.30;;;;;;4091048;28;20443;-72
2022/03/13 07:18:33;;;;;;;0.00;0.00;;;9.10;59.40;;;;;;4107834;28;20417;-70
2022/03/13 07:20:58;;;;;;;0.00;0.00;;;9.30;58.00;;;;;;4121092;28;20219;-72
2022/03/13 07:23:23;;;;;;;0.00;0.00;;;9.60;58.20;;;;;;4108075;28;20141;-73
2022/03/13 07:25:47;;;;;;;0.00;0.00;;;9.60;57.50;;;;;;4120495;28;20046;-72
2022/03/13 07:28:09;;;;;;;0.00;0.00;;;9.80;57.70;;;;;;4106706;28;20051;-72
2022/03/13 07:30:34;;;;;;;0.00;0.00;;;10.00;57.80;;;;;;4094683;28;20364;-73
2022/03/13 07:32:56;;;;;;;0.00;0.00;;;10.30;57.90;;;;;;4121491;28;20082;-74
2022/03/13 07:35:20;;;;;;;0.00;0.00;;;10.50;57.50;;;;;;4094377;28;20395;-71
2022/03/13 07:37:48;;;;;;;0.00;0.00;;;10.20;57.70;;;;;;4135151;28;20157;-73
2022/03/13 07:40:10;;;;;;;0.00;0.00;;;10.30;58.40;;;;;;4119540;28;20054;-71
2022/03/13 07:42:32;;;;;;;0.00;0.00;;;10.40;58.30;;;;;;4119709;28;20031;-71
2022/03/13 07:44:54;;;;;;;0.00;0.00;;;10.20;58.70;;;;;;4107025;28;20079;-71
2022/03/13 07:47:17;;;;;;;0.00;0.00;;;10.40;58.60;;;;;;4120347;28;20102;-72
2022/03/13 07:49:41;;;;;;;0.00;0.00;;;10.70;58.20;;;;;;4120800;28;20461;-73
2022/03/13 07:52:04;;;;;;;0.00;0.00;;;11.00;58.10;;;;;;4121278;28;20070;-70
2022/03/13 07:54:29;;;;;;;0.00;0.00;;;11.20;57.90;;;;;;4120329;28;20047;-71
2022/03/13 07:56:53;;;;;;;0.00;0.00;;;11.40;57.40;;;;;;4107297;28;20055;-72
2022/03/13 07:59:17;;;;;;;0.00;0.00;;;11.60;57.10;;;;;;4120344;28;20050;-72
2022/03/13 08:01:39;;;;;;;0.00;0.00;;;11.70;56.40;;;;;;4120279;28;20047;-72
2022/03/13 08:04:07;;;;;;;0.00;0.00;;;11.50;56.50;;;;;;4107213;28;20513;-72
2022/03/13 08:06:32;;;;;;;0.00;0.00;;;11.50;56.90;;;;;;4102491;28;20110;-72
2022/03/13 08:08:58;;;;;;;0.00;0.00;;;11.60;57.20;;;;;;4099229;28;20141;-73
2022/03/13 08:11:23;;;;;;;0.00;0.00;;;11.60;57.00;;;;;;4120296;28;20066;-72
2022/03/13 08:13:45;;;;;;;0.00;0.00;;;11.80;56.90;;;;;;4119433;28;20051;-73
2022/03/13 08:16:07;;;;;;;0.00;0.00;;;11.90;56.70;;;;;;4119362;28;20054;-72
2022/03/13 08:18:29;;;;;;;0.00;0.00;;;12.20;56.20;;;;;;4106391;28;21131;-72
2022/03/13 08:20:54;;;;;;;0.00;0.00;;;12.50;55.20;;;;;;4119122;28;20047;-72
2022/03/13 08:23:16;;;;;;;0.00;0.00;;;12.20;55.20;;;;;;4092481;28;20493;-69
2022/03/13 08:25:42;;;;;;;0.00;0.00;;;12.50;54.70;;;;;;4132396;28;20053;-71
2022/03/13 08:28:06;;;;;;;0.00;0.00;;;12.60;52.50;;;;;;4119132;28;20480;-72
2022/03/13 08:30:28;;;;;;;0.00;0.00;;;12.80;51.80;;;;;;4118583;28;20086;-73
2022/03/13 08:32:52;;;;;;;0.00;0.00;;;12.90;50.90;;;;;;4132643;28;20113;-73
2022/03/13 08:35:15;;;;;;;0.00;0.00;;;13.20;50.40;;;;;;4102986;28;20047;-72
2022/03/13 08:37:40;;;;;;;0.00;0.00;;;13.30;48.90;;;;;;4103102;28;20047;-71
2022/03/13 08:40:09;;;;;;;0.00;0.00;;;13.20;48.90;;;;;;4129784;28;20054;-73
2022/03/13 08:42:32;;;;;;;0.00;0.00;;;13.10;48.50;;;;;;4115790;28;20058;-73
2022/03/13 08:44:59;;;;;;;0.00;0.00;;;13.20;48.30;;;;;;4116537;28;20493;-73
2022/03/13 08:47:26;;;;;;;0.00;0.00;;;13.20;48.30;;;;;;4102728;28;20067;-70
2022/03/13 08:49:51;;;;;;;0.00;0.00;;;13.30;48.70;;;;;;4116195;28;20109;-73
2022/03/13 08:52:16;;;;;;;0.00;0.00;;;13.30;47.70;;;;;;4115657;28;20058;-72
2022/03/13 08:54:38;;;;;;;0.00;0.00;;;13.50;47.60;;;;;;4102105;28;20047;-74
2022/03/13 08:57:03;;;;;;;0.00;0.00;;;13.70;46.70;;;;;;4089477;28;20075;-72
2022/03/13 08:59:32;;;;;;;0.00;0.00;;;13.90;46.70;;;;;;4089680;28;20460;-71
2022/03/13 09:01:59;;;;;;;0.00;0.00;;;14.00;46.40;;;;;;4117037;28;20059;-69
2022/03/13 09:04:21;;;;;;;0.00;0.00;;;14.10;46.00;;;;;;4089635;28;20054;-69
2022/03/13 09:06:46;;;;;;;0.00;0.00;;;14.30;46.70;;;;;;4117454;28;20043;-68
2022/03/13 09:09:09;;;;;;;0.00;0.00;;;14.20;46.60;;;;;;4117301;28;20046;-69
2022/03/13 09:11:33;;;;;;;0.00;0.00;;;13.70;47.20;;;;;;4103390;28;20054;-68
2022/03/13 09:13:56;;;;;;;0.00;0.00;;;13.70;47.60;;;;;;4117008;28;20046;-68
2022/03/13 09:16:19;;;;;;;0.00;0.00;;;14.10;47.30;;;;;;4102953;28;20062;-71
2022/03/13 09:18:43;;;;;;;0.00;0.00;;;14.40;46.50;;;;;;4089732;28;20047;-74
2022/03/13 09:21:08;;;;;;;0.00;0.00;;;14.50;46.10;;;;;;4076533;28;20108;-73
2022/03/13 09:23:33;;;;;;;0.00;0.00;;;14.20;46.60;;;;;;4103121;28;20047;-72
2022/03/13 09:25:55;;;;;;;0.00;0.00;;;14.40;46.40;;;;;;4129713;28;20359;-72
2022/03/13 09:28:21;;;;;;;0.00;0.00;;;14.30;45.20;;;;;;4118089;28;20086;-72
2022/03/13 09:30:46;;;;;;;0.00;0.00;;;14.10;46.00;;;;;;4118129;28;20386;-74
2022/03/13 09:33:08;;;;;;;0.00;0.00;;;14.10;46.90;;;;;;4078793;28;20086;-73
2022/03/13 09:35:31;;;;;;;0.00;0.00;;;14.60;46.50;;;;;;4118165;28;20047;-73
2022/03/13 09:37:55;;;;;;;0.00;0.00;;;15.00;45.80;;;;;;4104597;28;20053;-73
2022/03/13 09:40:21;;;;;;;0.00;0.00;;;15.30;44.80;;;;;;4103860;28;20054;-72
2022/03/13 09:42:44;;;;;;;0.00;0.00;;;15.30;44.20;;;;;;4117711;28;20061;-74
2022/03/13 09:45:11;;;;;;;0.00;0.00;;;15.40;43.60;;;;;;4131721;28;20061;-72
2022/03/13 09:47:35;;;;;;;0.00;0.00;;;15.30;43.10;;;;;;4104532;28;20058;-72
2022/03/13 09:49:57;;;;;;;0.00;0.00;;;15.10;43.60;;;;;;4104820;28;20047;-73
2022/03/13 09:52:19;;;;;;;0.00;0.00;;;15.10;43.40;;;;;;4101749;28;20083;-74
2022/03/13 09:54:41;;;;;;;0.00;0.00;;;15.30;43.30;;;;;;4115784;28;20035;-74
2022/03/13 09:57:04;;;;;;;0.00;0.00;;;15.80;42.90;;;;;;4115729;28;20097;-74
2022/03/13 09:59:26;;;;;;;0.00;0.00;;;16.00;42.00;;;;;;4102079;28;20051;-74
2022/03/13 10:01:53;;;;;;;0.00;0.00;;;16.00;42.00;;;;;;4116208;28;20065;-73
2022/03/13 10:04:15;;;;;;;0.00;0.00;;;16.00;41.30;;;;;;4102685;28;20082;-72
2022/03/13 10:06:59;;;;;;;0.00;0.00;;;16.30;41.30;;;;;;4121129;28;20524;-74
2022/03/13 10:09:28;;;;;;;0.00;0.00;;;16.50;40.50;;;;;;4108116;28;20050;-74
2022/03/13 10:12:09;;;;;;;0.00;0.00;;;16.70;39.60;;;;;;4134972;28;20046;-72
2022/03/13 10:14:38;;;;;;;0.00;0.00;;;16.60;38.50;;;;;;4095502;28;20043;-73
2022/03/13 10:17:13;;;;;;;0.00;0.00;;;16.90;38.70;;;;;;4120953;28;20042;-74
2022/03/13 10:19:40;;;;;;;0.00;0.00;;;17.20;38.20;;;;;;4121131;28;20065;-76
2022/03/13 10:22:12;;;;;;;0.00;0.00;;;17.20;36.30;;;;;;4108092;28;20497;-72
2022/03/13 10:24:41;;;;;;;0.00;0.00;;;16.90;36.40;;;;;;4120495;28;20047;-73
2022/03/13 10:27:12;;;;;;;0.00;0.00;;;16.80;37.10;;;;;;4120726;28;20051;-73
2022/03/13 10:29:35;;;;;;;0.00;0.00;;;16.60;37.00;;;;;;4105012;28;20130;-76
2022/03/13 10:31:59;;;;;;;0.00;0.00;;;16.70;37.90;;;;;;4120191;28;20039;-71
2022/03/13 10:34:33;;;;;;;0.00;0.00;;;16.80;36.50;;;;;;4120564;28;20446;-74
2022/03/13 10:37:02;;;;;;;0.00;0.00;;;17.30;34.80;;;;;;4134445;28;20050;-73
2022/03/13 10:39:27;;;;;;;0.00;0.00;;;17.70;35.20;;;;;;4121063;28;20054;-73
2022/03/13 10:41:59;;;;;;;0.00;0.00;;;18.10;34.10;;;;;;4120815;28;20055;-73
2022/03/13 10:44:22;;;;;;;0.00;0.00;;;17.70;35.20;;;;;;4121564;28;20054;-74
2022/03/13 10:46:53;;;;;;;0.00;0.00;;;17.10;35.50;;;;;;4120666;28;20153;-73
2022/03/13 10:49:31;;;;;;;0.00;0.00;;;17.10;35.20;;;;;;4120782;28;20051;-74
2022/03/13 10:51:57;;;;;;;0.00;0.00;;;17.60;36.10;;;;;;4107346;28;20054;-72
2022/03/13 10:54:28;;;;;;;0.00;0.00;;;18.10;35.20;;;;;;4133624;28;20133;-75
2022/03/13 10:57:14;;;;;;;0.00;0.00;;;18.70;35.00;;;;;;4120896;28;20197;-72
2022/03/13 10:59:39;;;;;;;0.00;0.00;;;18.80;32.80;;;;;;4120427;28;20043;-74
2022/03/13 11:02:18;;;;;;;0.00;0.00;;;19.40;32.20;;;;;;4093692;28;20050;-72
2022/03/13 11:05:09;;;;;;;0.00;0.00;;;19.60;31.30;;;;;;4117643;28;20046;-72
2022/03/13 11:07:34;;;;;;;0.00;0.00;;;19.90;30.50;;;;;;4077637;28;20044;-75
2022/03/13 11:10:00;;;;;;;0.00;0.00;;;20.40;30.10;;;;;;4105842;28;20113;-73
2022/03/13 11:12:23;;;;;;;0.00;0.00;;;20.80;30.00;;;;;;4119811;28;20121;-75
2022/03/13 11:14:48;;;;;;;0.00;0.00;;;21.20;29.90;;;;;;4093506;28;20093;-72
2022/03/13 11:17:16;;;;;;;0.00;0.00;;;21.70;30.00;;;;;;4132506;28;20129;-73
2022/03/13 11:19:39;;;;;;;0.00;0.00;;;22.20;29.00;;;;;;4120209;28;20063;-75
2022/03/13 11:22:02;;;;;;;0.00;0.00;;;22.10;28.50;;;;;;4120227;28;20065;-74
2022/03/13 11:24:25;;;;;;;0.00;0.00;;;21.80;28.90;;;;;;4119993;28;20070;-73
2022/03/13 11:26:52;;;;;;;0.00;0.00;;;21.90;28.80;;;;;;4120342;28;20058;-72
2022/03/13 11:29:35;;;;;;;0.00;0.00;;;21.90;29.10;;;;;;4134037;28;20055;-73
2022/03/13 11:31:59;;;;;;;0.00;0.00;;;22.00;28.70;;;;;;4120204;28;20130;-74
2022/03/13 11:34:23;;;;;;;0.00;0.00;;;22.00;28.20;;;;;;4119648;28;20402;-72
2022/03/13 11:36:52;;;;;;;0.00;0.00;;;21.70;28.50;;;;;;4119727;28;20126;-74
2022/03/13 11:39:26;;;;;;;0.00;0.00;;;21.70;28.10;;;;;;4093111;28;20060;-73
2022/03/13 11:41:48;;;;;;;0.00;0.00;;;21.70;28.50;;;;;;4106024;28;20495;-73
2022/03/13 11:44:18;;;;;;;0.00;0.00;;;21.90;28.30;;;;;;4132812;28;20053;-74
2022/03/13 11:46:45;;;;;;;0.00;0.00;;;22.20;28.00;;;;;;4133234;28;20089;-74
2022/03/13 11:49:31;;;;;;;0.00;0.00;;;22.70;27.80;;;;;;4119544;28;20098;-75
2022/03/13 11:52:17;;;;;;;0.00;0.00;;;22.70;27.60;;;;;;4133237;28;20062;-74
2022/03/13 11:55:04;;;;;;;0.00;0.00;;;22.50;28.00;;;;;;4119124;28;20129;-75
2022/03/13 11:57:42;;;;;;;0.00;0.00;;;22.90;27.80;;;;;;4119396;28;20047;-74
2022/03/13 12:00:10;;;;;;;0.00;0.00;;;23.50;27.50;;;;;;4105949;28;20089;-73
2022/03/13 12:02:43;;;;;;;0.00;0.00;;;23.80;27.20;;;;;;4106324;28;20046;-72
2022/03/13 12:05:33;;;;;;;0.00;0.00;;;23.80;26.30;;;;;;4132967;28;20050;-75
2022/03/13 12:08:08;;;;;;;0.00;0.00;;;23.80;27.00;;;;;;4119161;28;20051;-73
2022/03/13 12:10:42;;;;;;;0.00;0.00;;;23.90;26.50;;;;;;4118855;28;20358;-76
2022/03/13 12:13:06;;;;;;;0.00;0.00;;;23.80;26.50;;;;;;4132886;28;20046;-75
2022/03/13 12:15:31;;;;;;;0.00;0.00;;;24.00;26.50;;;;;;4119145;28;20078;-73
2022/03/13 12:17:58;;;;;;;0.00;0.00;;;24.00;26.20;;;;;;4118965;28;20106;-74
2022/03/13 12:20:31;;;;;;;0.00;0.00;;;23.50;26.00;;;;;;4118835;28;20051;-73
2022/03/13 12:23:00;;;;;;;0.00;0.00;;;23.70;25.60;;;;;;4119074;28;20055;-72
2022/03/13 12:25:30;;;;;;;0.00;0.00;;;23.80;25.80;;;;;;4093422;28;20061;-75
2022/03/13 12:27:53;;;;;;;0.00;0.00;;;24.10;25.60;;;;;;4105295;28;20086;-72
2022/03/13 12:30:30;;;;;;;0.00;0.00;;;24.30;25.40;;;;;;4118462;28;20087;-75
2022/03/13 12:33:00;;;;;;;0.00;0.00;;;24.00;25.60;;;;;;4118973;28;20060;-73
2022/03/13 12:35:42;;;;;;;0.00;0.00;;;24.10;25.60;;;;;;4121522;28;20137;-74
2022/03/13 12:38:04;;;;;;;0.00;0.00;;;24.20;25.80;;;;;;4106159;28;20086;-75
2022/03/13 12:40:31;;;;;;;0.00;0.00;;;23.80;26.20;;;;;;4118698;28;20047;-73
2022/03/13 12:43:04;;;;;;;0.00;0.00;;;23.70;26.30;;;;;;4106500;28;20047;-74
2022/03/13 12:45:29;;;;;;;0.00;0.00;;;24.00;26.30;;;;;;4132150;28;20465;-71
2022/03/13 12:48:03;;;;;;;0.00;0.00;;;24.00;26.20;;;;;;4104834;28;20063;-74